sensor_id;sensor_type;location;lat;lon;timestamp;P1;durP1;ratioP1;P2;durP2;ratioP2
13102;SDS011;52970;46.752;17.108;2022-07-19T00:04:11;2.53;;;1.50;;
13102;SDS011;52970;46.752;17.108;2022-07-19T00:06:36;2.85;;;1.90;;
13102;SDS011;52970;46.752;17.108;2022-07-19T00:09:02;2.10;;;1.50;;
13102;SDS011;52970;46.752;17.108;2022-07-19T00:11:27;2.40;;;1.63;;
13102;SDS011;52970;46.752;17.108;2022-07-19T00:13:53;1.70;;;1.60;;
13102;SDS011;52970;46.752;17.108;2022-07-19T00:16:18;1.90;;;1.80;;
13102;SDS011;52970;46.752;17.108;2022-07-19T00:18:43;1.83;;;1.73;;
13102;SDS011;52970;46.752;17.108;2022-07-19T00:21:09;2.15;;;1.63;;
13102;SDS011;52970;46.752;17.108;2022-07-19T00:23:34;2.80;;;1.80;;
13102;SDS011;52970;46.752;17.108;2022-07-19T00:26:00;2.20;;;1.50;;
13102;SDS011;52970;46.752;17.108;2022-07-19T00:28:26;2.35;;;2.15;;
13102;SDS011;52970;46.752;17.108;2022-07-19T00:30:51;2.00;;;1.90;;
13102;SDS011;52970;46.752;17.108;2022-07-19T00:33:16;1.73;;;1.63;;
13102;SDS011;52970;46.752;17.108;2022-07-19T00:35:42;1.80;;;1.70;;
13102;SDS011;52970;46.752;17.108;2022-07-19T00:38:09;1.73;;;1.58;;
13102;SDS011;52970;46.752;17.108;2022-07-19T00:40:35;2.13;;;2.03;;
13102;SDS011;52970;46.752;17.108;2022-07-19T00:43:00;2.13;;;1.63;;
13102;SDS011;52970;46.752;17.108;2022-07-19T00:45:25;1.90;;;1.80;;
13102;SDS011;52970;46.752;17.108;2022-07-19T00:47:51;1.80;;;1.70;;
13102;SDS011;52970;46.752;17.108;2022-07-19T00:50:17;1.90;;;1.80;;
13102;SDS011;52970;46.752;17.108;2022-07-19T00:52:42;1.75;;;1.65;;
13102;SDS011;52970;46.752;17.108;2022-07-19T00:55:09;3.22;;;2.05;;
13102;SDS011;52970;46.752;17.108;2022-07-19T00:57:35;2.00;;;1.90;;
13102;SDS011;52970;46.752;17.108;2022-07-19T01:00:03;2.08;;;1.88;;
13102;SDS011;52970;46.752;17.108;2022-07-19T01:02:28;1.75;;;1.65;;
13102;SDS011;52970;46.752;17.108;2022-07-19T01:04:54;2.20;;;1.85;;
13102;SDS011;52970;46.752;17.108;2022-07-19T01:07:20;2.63;;;1.70;;
13102;SDS011;52970;46.752;17.108;2022-07-19T01:09:45;4.35;;;2.00;;
13102;SDS011;52970;46.752;17.108;2022-07-19T01:12:10;2.17;;;1.70;;
13102;SDS011;52970;46.752;17.108;2022-07-19T01:14:45;2.90;;;1.90;;
13102;SDS011;52970;46.752;17.108;2022-07-19T01:17:10;3.15;;;1.92;;
13102;SDS011;52970;46.752;17.108;2022-07-19T01:19:36;1.60;;;1.50;;
13102;SDS011;52970;46.752;17.108;2022-07-19T01:22:01;2.47;;;1.75;;
13102;SDS011;52970;46.752;17.108;2022-07-19T01:24:26;2.30;;;1.77;;
13102;SDS011;52970;46.752;17.108;2022-07-19T01:26:52;3.50;;;1.65;;
13102;SDS011;52970;46.752;17.108;2022-07-19T01:29:17;1.95;;;1.70;;
13102;SDS011;52970;46.752;17.108;2022-07-19T01:31:43;1.70;;;1.60;;
13102;SDS011;52970;46.752;17.108;2022-07-19T01:34:09;1.75;;;1.65;;
13102;SDS011;52970;46.752;17.108;2022-07-19T01:36:34;2.40;;;1.83;;
13102;SDS011;52970;46.752;17.108;2022-07-19T01:38:59;1.90;;;1.80;;
13102;SDS011;52970;46.752;17.108;2022-07-19T01:41:25;1.60;;;1.50;;
13102;SDS011;52970;46.752;17.108;2022-07-19T01:43:50;1.83;;;1.73;;
13102;SDS011;52970;46.752;17.108;2022-07-19T01:46:15;1.85;;;1.52;;
13102;SDS011;52970;46.752;17.108;2022-07-19T01:48:41;2.50;;;1.95;;
13102;SDS011;52970;46.752;17.108;2022-07-19T01:51:06;2.10;;;2.00;;
13102;SDS011;52970;46.752;17.108;2022-07-19T01:53:31;1.92;;;1.70;;
13102;SDS011;52970;46.752;17.108;2022-07-19T01:55:57;2.33;;;1.95;;
13102;SDS011;52970;46.752;17.108;2022-07-19T01:58:22;1.70;;;1.60;;
13102;SDS011;52970;46.752;17.108;2022-07-19T02:00:47;3.15;;;2.50;;
13102;SDS011;52970;46.752;17.108;2022-07-19T02:03:12;2.65;;;1.95;;
13102;SDS011;52970;46.752;17.108;2022-07-19T02:05:38;1.98;;;1.80;;
13102;SDS011;52970;46.752;17.108;2022-07-19T02:08:03;1.73;;;1.63;;
13102;SDS011;52970;46.752;17.108;2022-07-19T02:10:29;3.75;;;1.95;;
13102;SDS011;52970;46.752;17.108;2022-07-19T02:12:54;2.88;;;1.55;;
13102;SDS011;52970;46.752;17.108;2022-07-19T02:15:20;2.25;;;1.50;;
13102;SDS011;52970;46.752;17.108;2022-07-19T02:17:45;2.70;;;1.90;;
13102;SDS011;52970;46.752;17.108;2022-07-19T02:20:10;3.00;;;2.00;;
13102;SDS011;52970;46.752;17.108;2022-07-19T02:22:37;4.75;;;1.90;;
13102;SDS011;52970;46.752;17.108;2022-07-19T02:25:02;2.05;;;1.75;;
13102;SDS011;52970;46.752;17.108;2022-07-19T02:27:28;2.25;;;1.70;;
13102;SDS011;52970;46.752;17.108;2022-07-19T02:29:54;2.90;;;1.92;;
13102;SDS011;52970;46.752;17.108;2022-07-19T02:32:19;2.28;;;1.80;;
13102;SDS011;52970;46.752;17.108;2022-07-19T02:34:44;1.77;;;1.67;;
13102;SDS011;52970;46.752;17.108;2022-07-19T02:37:09;1.70;;;1.60;;
13102;SDS011;52970;46.752;17.108;2022-07-19T02:39:35;2.95;;;2.00;;
13102;SDS011;52970;46.752;17.108;2022-07-19T02:42:00;2.00;;;1.90;;
13102;SDS011;52970;46.752;17.108;2022-07-19T02:44:25;2.65;;;1.88;;
13102;SDS011;52970;46.752;17.108;2022-07-19T02:46:51;2.25;;;2.05;;
13102;SDS011;52970;46.752;17.108;2022-07-19T02:49:16;2.97;;;1.98;;
13102;SDS011;52970;46.752;17.108;2022-07-19T02:51:41;2.13;;;1.92;;
13102;SDS011;52970;46.752;17.108;2022-07-19T02:54:06;4.55;;;2.10;;
13102;SDS011;52970;46.752;17.108;2022-07-19T02:56:32;1.98;;;1.88;;
13102;SDS011;52970;46.752;17.108;2022-07-19T02:58:57;2.10;;;2.00;;
13102;SDS011;52970;46.752;17.108;2022-07-19T03:01:23;2.28;;;2.00;;
13102;SDS011;52970;46.752;17.108;2022-07-19T03:03:48;2.35;;;1.88;;
13102;SDS011;52970;46.752;17.108;2022-07-19T03:06:15;2.65;;;2.10;;
13102;SDS011;52970;46.752;17.108;2022-07-19T03:08:41;2.35;;;2.10;;
13102;SDS011;52970;46.752;17.108;2022-07-19T03:11:06;2.45;;;1.92;;
13102;SDS011;52970;46.752;17.108;2022-07-19T03:13:32;2.00;;;1.90;;
13102;SDS011;52970;46.752;17.108;2022-07-19T03:15:57;2.63;;;2.42;;
13102;SDS011;52970;46.752;17.108;2022-07-19T03:18:22;3.22;;;2.00;;
13102;SDS011;52970;46.752;17.108;2022-07-19T03:20:48;2.05;;;1.95;;
13102;SDS011;52970;46.752;17.108;2022-07-19T03:23:13;2.17;;;1.98;;
13102;SDS011;52970;46.752;17.108;2022-07-19T03:25:38;3.22;;;1.95;;
13102;SDS011;52970;46.752;17.108;2022-07-19T03:28:04;2.45;;;2.25;;
13102;SDS011;52970;46.752;17.108;2022-07-19T03:30:29;3.17;;;2.00;;
13102;SDS011;52970;46.752;17.108;2022-07-19T03:32:54;2.17;;;2.00;;
13102;SDS011;52970;46.752;17.108;2022-07-19T03:35:20;4.90;;;2.10;;
13102;SDS011;52970;46.752;17.108;2022-07-19T03:37:45;2.60;;;2.40;;
13102;SDS011;52970;46.752;17.108;2022-07-19T03:40:11;3.35;;;2.10;;
13102;SDS011;52970;46.752;17.108;2022-07-19T03:42:36;2.65;;;2.45;;
13102;SDS011;52970;46.752;17.108;2022-07-19T03:45:01;2.25;;;2.03;;
13102;SDS011;52970;46.752;17.108;2022-07-19T03:47:27;3.00;;;2.38;;
13102;SDS011;52970;46.752;17.108;2022-07-19T03:49:52;3.17;;;2.55;;
13102;SDS011;52970;46.752;17.108;2022-07-19T03:52:17;4.10;;;2.60;;
13102;SDS011;52970;46.752;17.108;2022-07-19T03:54:43;2.30;;;2.10;;
13102;SDS011;52970;46.752;17.108;2022-07-19T03:57:08;3.58;;;2.28;;
13102;SDS011;52970;46.752;17.108;2022-07-19T03:59:33;2.88;;;2.10;;
13102;SDS011;52970;46.752;17.108;2022-07-19T04:01:58;2.63;;;2.30;;
13102;SDS011;52970;46.752;17.108;2022-07-19T04:04:24;3.65;;;2.47;;
13102;SDS011;52970;46.752;17.108;2022-07-19T04:06:49;2.28;;;2.15;;
13102;SDS011;52970;46.752;17.108;2022-07-19T04:09:14;3.03;;;2.50;;
13102;SDS011;52970;46.752;17.108;2022-07-19T04:11:40;2.40;;;2.20;;
13102;SDS011;52970;46.752;17.108;2022-07-19T04:14:05;2.72;;;2.30;;
13102;SDS011;52970;46.752;17.108;2022-07-19T04:16:30;2.47;;;2.20;;
13102;SDS011;52970;46.752;17.108;2022-07-19T04:18:56;2.45;;;1.98;;
13102;SDS011;52970;46.752;17.108;2022-07-19T04:21:21;2.72;;;2.28;;
13102;SDS011;52970;46.752;17.108;2022-07-19T04:23:46;3.15;;;2.15;;
13102;SDS011;52970;46.752;17.108;2022-07-19T04:26:12;2.30;;;2.10;;
13102;SDS011;52970;46.752;17.108;2022-07-19T04:28:37;3.00;;;2.35;;
13102;SDS011;52970;46.752;17.108;2022-07-19T04:31:02;3.05;;;2.30;;
13102;SDS011;52970;46.752;17.108;2022-07-19T04:33:27;2.65;;;2.40;;
13102;SDS011;52970;46.752;17.108;2022-07-19T04:35:53;2.92;;;2.28;;
13102;SDS011;52970;46.752;17.108;2022-07-19T04:38:19;8.98;;;2.58;;
13102;SDS011;52970;46.752;17.108;2022-07-19T04:40:44;2.20;;;2.00;;
13102;SDS011;52970;46.752;17.108;2022-07-19T04:43:09;4.13;;;2.28;;
13102;SDS011;52970;46.752;17.108;2022-07-19T04:45:35;2.47;;;2.28;;
13102;SDS011;52970;46.752;17.108;2022-07-19T04:48:00;2.65;;;2.30;;
13102;SDS011;52970;46.752;17.108;2022-07-19T04:50:25;2.50;;;2.28;;
13102;SDS011;52970;46.752;17.108;2022-07-19T04:52:51;2.85;;;2.58;;
13102;SDS011;52970;46.752;17.108;2022-07-19T04:55:16;2.90;;;2.70;;
13102;SDS011;52970;46.752;17.108;2022-07-19T04:57:41;2.67;;;2.47;;
13102;SDS011;52970;46.752;17.108;2022-07-19T05:00:08;3.53;;;2.58;;
13102;SDS011;52970;46.752;17.108;2022-07-19T05:02:37;3.22;;;2.60;;
13102;SDS011;52970;46.752;17.108;2022-07-19T05:05:03;2.30;;;2.20;;
13102;SDS011;52970;46.752;17.108;2022-07-19T05:07:28;3.28;;;2.60;;
13102;SDS011;52970;46.752;17.108;2022-07-19T05:09:53;6.40;;;2.63;;
13102;SDS011;52970;46.752;17.108;2022-07-19T05:12:19;2.45;;;2.25;;
13102;SDS011;52970;46.752;17.108;2022-07-19T05:14:44;3.00;;;2.70;;
13102;SDS011;52970;46.752;17.108;2022-07-19T05:17:09;2.80;;;2.25;;
13102;SDS011;52970;46.752;17.108;2022-07-19T05:19:35;2.80;;;2.50;;
13102;SDS011;52970;46.752;17.108;2022-07-19T05:22:00;6.13;;;2.50;;
13102;SDS011;52970;46.752;17.108;2022-07-19T05:24:25;2.60;;;2.40;;
13102;SDS011;52970;46.752;17.108;2022-07-19T05:26:51;3.25;;;2.30;;
13102;SDS011;52970;46.752;17.108;2022-07-19T05:29:16;4.10;;;2.45;;
13102;SDS011;52970;46.752;17.108;2022-07-19T05:31:41;3.50;;;2.60;;
13102;SDS011;52970;46.752;17.108;2022-07-19T05:34:06;4.45;;;2.97;;
13102;SDS011;52970;46.752;17.108;2022-07-19T05:36:32;3.20;;;2.75;;
13102;SDS011;52970;46.752;17.108;2022-07-19T05:38:57;2.88;;;2.67;;
13102;SDS011;52970;46.752;17.108;2022-07-19T05:41:22;4.03;;;2.80;;
13102;SDS011;52970;46.752;17.108;2022-07-19T05:43:49;4.28;;;2.88;;
13102;SDS011;52970;46.752;17.108;2022-07-19T05:46:14;3.55;;;3.05;;
13102;SDS011;52970;46.752;17.108;2022-07-19T05:48:39;3.28;;;3.05;;
13102;SDS011;52970;46.752;17.108;2022-07-19T05:51:05;3.50;;;2.90;;
13102;SDS011;52970;46.752;17.108;2022-07-19T05:53:30;3.35;;;3.15;;
13102;SDS011;52970;46.752;17.108;2022-07-19T05:55:56;2.80;;;2.58;;
13102;SDS011;52970;46.752;17.108;2022-07-19T05:58:21;4.03;;;2.70;;
13102;SDS011;52970;46.752;17.108;2022-07-19T06:00:48;2.83;;;2.63;;
13102;SDS011;52970;46.752;17.108;2022-07-19T06:03:32;2.80;;;2.60;;
13102;SDS011;52970;46.752;17.108;2022-07-19T06:05:57;4.60;;;3.05;;
13102;SDS011;52970;46.752;17.108;2022-07-19T06:08:22;4.05;;;3.20;;
13102;SDS011;52970;46.752;17.108;2022-07-19T06:10:48;4.22;;;2.55;;
13102;SDS011;52970;46.752;17.108;2022-07-19T06:13:13;4.45;;;2.72;;
13102;SDS011;52970;46.752;17.108;2022-07-19T06:15:38;3.10;;;2.80;;
13102;SDS011;52970;46.752;17.108;2022-07-19T06:18:04;4.40;;;2.72;;
13102;SDS011;52970;46.752;17.108;2022-07-19T06:20:29;4.00;;;2.67;;
13102;SDS011;52970;46.752;17.108;2022-07-19T06:22:54;3.30;;;2.78;;
13102;SDS011;52970;46.752;17.108;2022-07-19T06:25:20;2.88;;;2.63;;
13102;SDS011;52970;46.752;17.108;2022-07-19T06:27:45;3.53;;;2.83;;
13102;SDS011;52970;46.752;17.108;2022-07-19T06:30:10;5.35;;;2.63;;
13102;SDS011;52970;46.752;17.108;2022-07-19T06:32:36;3.65;;;2.55;;
13102;SDS011;52970;46.752;17.108;2022-07-19T06:35:01;2.28;;;2.17;;
13102;SDS011;52970;46.752;17.108;2022-07-19T06:37:26;4.82;;;2.72;;
13102;SDS011;52970;46.752;17.108;2022-07-19T06:39:52;5.97;;;3.17;;
13102;SDS011;52970;46.752;17.108;2022-07-19T06:42:17;2.67;;;2.30;;
13102;SDS011;52970;46.752;17.108;2022-07-19T06:44:42;2.45;;;2.25;;
13102;SDS011;52970;46.752;17.108;2022-07-19T06:47:07;5.82;;;2.60;;
13102;SDS011;52970;46.752;17.108;2022-07-19T06:49:33;4.20;;;2.50;;
13102;SDS011;52970;46.752;17.108;2022-07-19T06:51:58;5.10;;;2.50;;
13102;SDS011;52970;46.752;17.108;2022-07-19T06:54:23;5.35;;;2.40;;
13102;SDS011;52970;46.752;17.108;2022-07-19T06:56:49;2.78;;;1.98;;
13102;SDS011;52970;46.752;17.108;2022-07-19T06:59:14;7.38;;;2.50;;
13102;SDS011;52970;46.752;17.108;2022-07-19T07:01:39;3.38;;;2.53;;
13102;SDS011;52970;46.752;17.108;2022-07-19T07:04:04;3.83;;;2.38;;
13102;SDS011;52970;46.752;17.108;2022-07-19T07:06:30;5.40;;;2.60;;
13102;SDS011;52970;46.752;17.108;2022-07-19T07:08:55;3.95;;;2.40;;
13102;SDS011;52970;46.752;17.108;2022-07-19T07:11:20;2.85;;;2.55;;
13102;SDS011;52970;46.752;17.108;2022-07-19T07:13:45;2.72;;;2.47;;
13102;SDS011;52970;46.752;17.108;2022-07-19T07:16:11;2.92;;;2.30;;
13102;SDS011;52970;46.752;17.108;2022-07-19T07:18:36;3.40;;;2.60;;
13102;SDS011;52970;46.752;17.108;2022-07-19T07:21:01;2.50;;;2.30;;
13102;SDS011;52970;46.752;17.108;2022-07-19T07:23:27;3.47;;;2.30;;
13102;SDS011;52970;46.752;17.108;2022-07-19T07:25:52;2.90;;;2.25;;
13102;SDS011;52970;46.752;17.108;2022-07-19T07:28:19;3.15;;;2.40;;
13102;SDS011;52970;46.752;17.108;2022-07-19T07:30:44;2.67;;;2.38;;
13102;SDS011;52970;46.752;17.108;2022-07-19T07:33:09;3.25;;;2.28;;
13102;SDS011;52970;46.752;17.108;2022-07-19T07:35:34;2.83;;;1.95;;
13102;SDS011;52970;46.752;17.108;2022-07-19T07:38:00;5.03;;;2.05;;
13102;SDS011;52970;46.752;17.108;2022-07-19T07:40:25;2.50;;;2.30;;
13102;SDS011;52970;46.752;17.108;2022-07-19T07:42:50;2.35;;;1.98;;
13102;SDS011;52970;46.752;17.108;2022-07-19T07:45:15;2.70;;;2.30;;
13102;SDS011;52970;46.752;17.108;2022-07-19T07:47:41;2.25;;;2.05;;
13102;SDS011;52970;46.752;17.108;2022-07-19T07:50:06;2.22;;;2.03;;
13102;SDS011;52970;46.752;17.108;2022-07-19T07:52:32;2.92;;;2.30;;
13102;SDS011;52970;46.752;17.108;2022-07-19T07:54:57;2.40;;;2.17;;
13102;SDS011;52970;46.752;17.108;2022-07-19T07:57:22;2.38;;;2.10;;
13102;SDS011;52970;46.752;17.108;2022-07-19T07:59:48;2.85;;;2.10;;
13102;SDS011;52970;46.752;17.108;2022-07-19T08:02:13;3.33;;;2.25;;
13102;SDS011;52970;46.752;17.108;2022-07-19T08:04:38;3.10;;;2.00;;
13102;SDS011;52970;46.752;17.108;2022-07-19T08:07:03;4.57;;;2.17;;
13102;SDS011;52970;46.752;17.108;2022-07-19T08:09:29;2.15;;;2.05;;
13102;SDS011;52970;46.752;17.108;2022-07-19T08:11:55;4.78;;;2.35;;
13102;SDS011;52970;46.752;17.108;2022-07-19T08:14:21;2.20;;;1.90;;
13102;SDS011;52970;46.752;17.108;2022-07-19T08:16:46;5.25;;;2.30;;
13102;SDS011;52970;46.752;17.108;2022-07-19T08:19:11;2.78;;;1.88;;
13102;SDS011;52970;46.752;17.108;2022-07-19T08:21:37;4.32;;;2.03;;
13102;SDS011;52970;46.752;17.108;2022-07-19T08:24:02;2.40;;;2.15;;
13102;SDS011;52970;46.752;17.108;2022-07-19T08:26:27;3.88;;;2.00;;
13102;SDS011;52970;46.752;17.108;2022-07-19T08:28:55;5.80;;;1.90;;
13102;SDS011;52970;46.752;17.108;2022-07-19T08:31:20;2.55;;;2.00;;
13102;SDS011;52970;46.752;17.108;2022-07-19T08:33:45;5.13;;;1.92;;
13102;SDS011;52970;46.752;17.108;2022-07-19T08:36:10;2.97;;;1.65;;
13102;SDS011;52970;46.752;17.108;2022-07-19T08:38:37;4.95;;;1.70;;
13102;SDS011;52970;46.752;17.108;2022-07-19T08:41:02;4.10;;;1.70;;
13102;SDS011;52970;46.752;17.108;2022-07-19T08:43:29;4.55;;;1.92;;
13102;SDS011;52970;46.752;17.108;2022-07-19T08:45:55;4.20;;;1.60;;
13102;SDS011;52970;46.752;17.108;2022-07-19T08:48:22;3.80;;;1.50;;
13102;SDS011;52970;46.752;17.108;2022-07-19T08:50:48;5.75;;;1.95;;
13102;SDS011;52970;46.752;17.108;2022-07-19T08:53:15;1.60;;;1.50;;
13102;SDS011;52970;46.752;17.108;2022-07-19T08:55:41;1.63;;;1.52;;
13102;SDS011;52970;46.752;17.108;2022-07-19T08:58:06;3.60;;;1.40;;
13102;SDS011;52970;46.752;17.108;2022-07-19T09:00:32;3.13;;;1.30;;
13102;SDS011;52970;46.752;17.108;2022-07-19T09:03:02;2.38;;;1.70;;
13102;SDS011;52970;46.752;17.108;2022-07-19T09:05:28;1.65;;;1.38;;
13102;SDS011;52970;46.752;17.108;2022-07-19T09:10:31;2.33;;;1.40;;
13102;SDS011;52970;46.752;17.108;2022-07-19T09:20:37;3.08;;;1.70;;
13102;SDS011;52970;46.752;17.108;2022-07-19T09:23:03;1.23;;;1.15;;
13102;SDS011;52970;46.752;17.108;2022-07-19T09:25:35;2.92;;;1.70;;
13102;SDS011;52970;46.752;17.108;2022-07-19T09:28:02;6.35;;;1.50;;
13102;SDS011;52970;46.752;17.108;2022-07-19T09:30:31;1.45;;;1.35;;
13102;SDS011;52970;46.752;17.108;2022-07-19T09:33:04;1.45;;;1.35;;
13102;SDS011;52970;46.752;17.108;2022-07-19T09:35:34;4.97;;;1.40;;
13102;SDS011;52970;46.752;17.108;2022-07-19T09:38:13;1.30;;;1.20;;
13102;SDS011;52970;46.752;17.108;2022-07-19T09:40:38;3.15;;;1.25;;
13102;SDS011;52970;46.752;17.108;2022-07-19T09:43:04;1.35;;;1.25;;
13102;SDS011;52970;46.752;17.108;2022-07-19T09:45:29;3.78;;;1.60;;
13102;SDS011;52970;46.752;17.108;2022-07-19T09:47:57;3.03;;;1.50;;
13102;SDS011;52970;46.752;17.108;2022-07-19T09:50:23;1.60;;;1.30;;
13102;SDS011;52970;46.752;17.108;2022-07-19T09:52:49;1.42;;;1.33;;
13102;SDS011;52970;46.752;17.108;2022-07-19T09:55:15;4.05;;;1.52;;
13102;SDS011;52970;46.752;17.108;2022-07-19T09:57:44;4.00;;;1.25;;
13102;SDS011;52970;46.752;17.108;2022-07-19T10:00:10;1.92;;;1.55;;
13102;SDS011;52970;46.752;17.108;2022-07-19T10:02:37;2.42;;;1.15;;
13102;SDS011;52970;46.752;17.108;2022-07-19T10:05:03;2.88;;;1.20;;
13102;SDS011;52970;46.752;17.108;2022-07-19T10:07:30;2.55;;;1.35;;
13102;SDS011;52970;46.752;17.108;2022-07-19T10:09:55;1.58;;;1.20;;
13102;SDS011;52970;46.752;17.108;2022-07-19T10:12:21;1.73;;;1.15;;
13102;SDS011;52970;46.752;17.108;2022-07-19T10:14:47;1.60;;;1.30;;
13102;SDS011;52970;46.752;17.108;2022-07-19T10:19:44;3.00;;;1.42;;
13102;SDS011;52970;46.752;17.108;2022-07-19T10:22:11;1.67;;;1.30;;
13102;SDS011;52970;46.752;17.108;2022-07-19T10:27:08;4.10;;;1.40;;
13102;SDS011;52970;46.752;17.108;2022-07-19T10:29:33;3.15;;;1.20;;
13102;SDS011;52970;46.752;17.108;2022-07-19T10:32:17;1.90;;;1.33;;
13102;SDS011;52970;46.752;17.108;2022-07-19T10:34:42;5.28;;;1.15;;
13102;SDS011;52970;46.752;17.108;2022-07-19T10:37:11;1.27;;;1.17;;
13102;SDS011;52970;46.752;17.108;2022-07-19T10:45:23;2.03;;;1.13;;
13102;SDS011;52970;46.752;17.108;2022-07-19T10:50:16;1.53;;;1.20;;
13102;SDS011;52970;46.752;17.108;2022-07-19T10:52:43;2.90;;;1.35;;
13102;SDS011;52970;46.752;17.108;2022-07-19T10:57:44;2.85;;;0.90;;
13102;SDS011;52970;46.752;17.108;2022-07-19T11:00:28;1.40;;;1.15;;
13102;SDS011;52970;46.752;17.108;2022-07-19T11:03:27;1.15;;;1.08;;
13102;SDS011;52970;46.752;17.108;2022-07-19T11:05:46;1.40;;;1.15;;
13102;SDS011;52970;46.752;17.108;2022-07-19T11:08:12;1.95;;;1.20;;
13102;SDS011;52970;46.752;17.108;2022-07-19T11:10:38;1.30;;;1.15;;
13102;SDS011;52970;46.752;17.108;2022-07-19T11:13:03;1.80;;;1.10;;
13102;SDS011;52970;46.752;17.108;2022-07-19T11:15:28;3.08;;;1.13;;
13102;SDS011;52970;46.752;17.108;2022-07-19T11:17:58;1.60;;;1.25;;
13102;SDS011;52970;46.752;17.108;2022-07-19T11:20:25;1.55;;;1.45;;
13102;SDS011;52970;46.752;17.108;2022-07-19T11:22:51;3.22;;;1.33;;
13102;SDS011;52970;46.752;17.108;2022-07-19T11:25:22;1.13;;;1.02;;
13102;SDS011;52970;46.752;17.108;2022-07-19T11:27:48;1.30;;;1.10;;
13102;SDS011;52970;46.752;17.108;2022-07-19T11:42:55;1.20;;;1.10;;
13102;SDS011;52970;46.752;17.108;2022-07-19T11:45:21;1.13;;;0.90;;
13102;SDS011;52970;46.752;17.108;2022-07-19T11:47:51;1.02;;;1.02;;
13102;SDS011;52970;46.752;17.108;2022-07-19T11:50:20;3.00;;;1.40;;
13102;SDS011;52970;46.752;17.108;2022-07-19T11:52:46;1.95;;;1.25;;
13102;SDS011;52970;46.752;17.108;2022-07-19T12:01:25;2.58;;;1.10;;
13102;SDS011;52970;46.752;17.108;2022-07-19T12:04:00;1.58;;;1.10;;
13102;SDS011;52970;46.752;17.108;2022-07-19T12:06:38;1.50;;;1.25;;
13102;SDS011;52970;46.752;17.108;2022-07-19T12:09:04;0.90;;;0.90;;
13102;SDS011;52970;46.752;17.108;2022-07-19T12:11:36;1.00;;;0.95;;
13102;SDS011;52970;46.752;17.108;2022-07-19T12:14:02;2.47;;;1.45;;
13102;SDS011;52970;46.752;17.108;2022-07-19T12:16:41;1.73;;;1.30;;
13102;SDS011;52970;46.752;17.108;2022-07-19T12:19:09;1.57;;;1.40;;
13102;SDS011;52970;46.752;17.108;2022-07-19T12:39:55;1.33;;;1.00;;
13102;SDS011;52970;46.752;17.108;2022-07-19T12:42:20;3.85;;;1.10;;
13102;SDS011;52970;46.752;17.108;2022-07-19T12:44:46;1.85;;;1.30;;
13102;SDS011;52970;46.752;17.108;2022-07-19T12:47:11;2.17;;;1.05;;
13102;SDS011;52970;46.752;17.108;2022-07-19T12:49:43;1.10;;;1.10;;
13102;SDS011;52970;46.752;17.108;2022-07-19T12:52:09;1.92;;;1.20;;
13102;SDS011;52970;46.752;17.108;2022-07-19T12:54:35;1.38;;;1.13;;
13102;SDS011;52970;46.752;17.108;2022-07-19T12:57:00;2.45;;;1.40;;
13102;SDS011;52970;46.752;17.108;2022-07-19T12:59:26;3.13;;;1.33;;
13102;SDS011;52970;46.752;17.108;2022-07-19T13:02:10;1.58;;;1.20;;
13102;SDS011;52970;46.752;17.108;2022-07-19T13:04:36;2.00;;;1.30;;
13102;SDS011;52970;46.752;17.108;2022-07-19T13:07:02;2.47;;;1.15;;
13102;SDS011;52970;46.752;17.108;2022-07-19T13:09:27;3.40;;;1.50;;
13102;SDS011;52970;46.752;17.108;2022-07-19T13:11:52;2.25;;;1.10;;
13102;SDS011;52970;46.752;17.108;2022-07-19T13:14:18;1.17;;;0.98;;
13102;SDS011;52970;46.752;17.108;2022-07-19T13:16:43;1.38;;;1.15;;
13102;SDS011;52970;46.752;17.108;2022-07-19T13:19:08;2.55;;;1.10;;
13102;SDS011;52970;46.752;17.108;2022-07-19T13:21:35;1.05;;;1.05;;
13102;SDS011;52970;46.752;17.108;2022-07-19T13:24:00;5.80;;;1.60;;
13102;SDS011;52970;46.752;17.108;2022-07-19T13:26:26;2.83;;;1.20;;
13102;SDS011;52970;46.752;17.108;2022-07-19T13:28:51;2.45;;;1.23;;
13102;SDS011;52970;46.752;17.108;2022-07-19T13:31:16;3.05;;;1.25;;
13102;SDS011;52970;46.752;17.108;2022-07-19T13:33:42;1.58;;;1.17;;
13102;SDS011;52970;46.752;17.108;2022-07-19T13:36:07;2.63;;;1.55;;
13102;SDS011;52970;46.752;17.108;2022-07-19T13:38:32;2.30;;;1.02;;
13102;SDS011;52970;46.752;17.108;2022-07-19T13:40:58;1.95;;;1.33;;
13102;SDS011;52970;46.752;17.108;2022-07-19T13:43:23;3.55;;;1.25;;
13102;SDS011;52970;46.752;17.108;2022-07-19T13:45:48;2.45;;;1.45;;
13102;SDS011;52970;46.752;17.108;2022-07-19T13:48:15;3.50;;;1.27;;
13102;SDS011;52970;46.752;17.108;2022-07-19T13:50:40;1.42;;;1.33;;
13102;SDS011;52970;46.752;17.108;2022-07-19T13:53:06;1.90;;;1.48;;
13102;SDS011;52970;46.752;17.108;2022-07-19T13:55:31;1.60;;;1.10;;
13102;SDS011;52970;46.752;17.108;2022-07-19T13:57:57;3.53;;;1.20;;
13102;SDS011;52970;46.752;17.108;2022-07-19T14:00:22;1.90;;;1.00;;
13102;SDS011;52970;46.752;17.108;2022-07-19T14:02:48;2.47;;;1.30;;
13102;SDS011;52970;46.752;17.108;2022-07-19T14:05:13;1.25;;;1.13;;
13102;SDS011;52970;46.752;17.108;2022-07-19T14:07:39;2.83;;;1.20;;
13102;SDS011;52970;46.752;17.108;2022-07-19T14:10:04;1.67;;;1.30;;
13102;SDS011;52970;46.752;17.108;2022-07-19T14:12:30;1.95;;;1.55;;
13102;SDS011;52970;46.752;17.108;2022-07-19T14:14:55;1.60;;;1.50;;
13102;SDS011;52970;46.752;17.108;2022-07-19T14:17:20;1.25;;;1.02;;
13102;SDS011;52970;46.752;17.108;2022-07-19T14:19:46;1.10;;;1.00;;
13102;SDS011;52970;46.752;17.108;2022-07-19T14:22:11;1.30;;;1.20;;
13102;SDS011;52970;46.752;17.108;2022-07-19T14:24:36;1.63;;;1.13;;
13102;SDS011;52970;46.752;17.108;2022-07-19T14:27:02;2.28;;;1.23;;
13102;SDS011;52970;46.752;17.108;2022-07-19T14:29:28;2.20;;;1.02;;
13102;SDS011;52970;46.752;17.108;2022-07-19T14:31:53;1.90;;;1.27;;
13102;SDS011;52970;46.752;17.108;2022-07-19T14:34:18;1.65;;;1.25;;
13102;SDS011;52970;46.752;17.108;2022-07-19T14:36:43;3.00;;;1.30;;
13102;SDS011;52970;46.752;17.108;2022-07-19T14:39:09;1.30;;;1.20;;
13102;SDS011;52970;46.752;17.108;2022-07-19T14:41:36;2.40;;;1.30;;
13102;SDS011;52970;46.752;17.108;2022-07-19T14:44:01;1.08;;;0.98;;
13102;SDS011;52970;46.752;17.108;2022-07-19T14:46:26;2.83;;;1.45;;
13102;SDS011;52970;46.752;17.108;2022-07-19T14:48:52;1.60;;;1.20;;
13102;SDS011;52970;46.752;17.108;2022-07-19T14:51:17;1.30;;;1.20;;
13102;SDS011;52970;46.752;17.108;2022-07-19T14:53:42;1.33;;;1.23;;
13102;SDS011;52970;46.752;17.108;2022-07-19T14:56:07;1.17;;;1.17;;
13102;SDS011;52970;46.752;17.108;2022-07-19T14:58:33;1.50;;;1.25;;
13102;SDS011;52970;46.752;17.108;2022-07-19T15:00:58;2.50;;;1.50;;
13102;SDS011;52970;46.752;17.108;2022-07-19T15:03:23;2.92;;;1.20;;
13102;SDS011;52970;46.752;17.108;2022-07-19T15:05:48;5.20;;;1.40;;
13102;SDS011;52970;46.752;17.108;2022-07-19T15:08:14;4.03;;;1.50;;
13102;SDS011;52970;46.752;17.108;2022-07-19T15:10:39;1.52;;;1.05;;
13102;SDS011;52970;46.752;17.108;2022-07-19T15:13:04;1.63;;;1.38;;
13102;SDS011;52970;46.752;17.108;2022-07-19T15:15:31;2.20;;;1.38;;
13102;SDS011;52970;46.752;17.108;2022-07-19T15:17:56;2.47;;;1.33;;
13102;SDS011;52970;46.752;17.108;2022-07-19T15:20:21;1.77;;;1.20;;
13102;SDS011;52970;46.752;17.108;2022-07-19T15:22:49;3.83;;;1.25;;
13102;SDS011;52970;46.752;17.108;2022-07-19T15:25:14;1.85;;;1.27;;
13102;SDS011;52970;46.752;17.108;2022-07-19T15:27:41;2.28;;;1.45;;
13102;SDS011;52970;46.752;17.108;2022-07-19T15:30:06;2.10;;;1.20;;
13102;SDS011;52970;46.752;17.108;2022-07-19T15:32:33;2.88;;;1.73;;